Terminal Aerodrome Forecast
Issued by NWS

Current Version | Previous Version | Text Only | Print | Product List | Glossary On
Versions: 1 2 3 4 5 6 7 8 9 10 11 12 13 14 15 16 17 18 19 20
000
FTUS41 KPHI 230802 AAA
TAFPNE
TAF AMD
KPNE 230802Z 2308/2406 22004KT P6SM BKN120 OVC250
      TEMPO 2309/2311 5SM BR
     FM231100 23007KT P6SM BKN050 OVC120
     FM231500 24010KT 4SM SHRA OVC015
      TEMPO 2315/2319 3SM TSRA BKN010CB
     FM231900 24012G19KT P6SM SCT025 OVC050 PROB30 2319/2323 3SM
      TSRA BKN025CB
     FM232300 26010KT P6SM OVC040
     FM240400 24007KT 4SM SHRA OVC040=

USA.gov is the U.S. government's official web portal to all federal, state and local government web resources and services.